Time;durP1;ratioP1;P1;durP2;ratioP2;P2;SDS_P1;SDS_P2;PMS_P1;PMS_P2;Temp;Humidity;BMP_temperature;BMP_pressure;BME280_temperature;BME280_humidity;BME280_pressure;Samples;Min_cycle;Max_cycle;Signal;HPM_P1;HPM_P2
2021/06/13 00:00:26;;;;;;;0.97;0.93;;;28.30;58.40;;;;;;5082897;28;20480;-59
2021/06/13 00:02:57;;;;;;;0.97;0.87;;;28.40;57.90;;;;;;5083046;28;20556;-59
2021/06/13 00:05:29;;;;;;;2.73;1.07;;;28.50;56.10;;;;;;5082655;28;20447;-58
2021/06/13 00:07:59;;;;;;;2.23;0.60;;;28.30;58.30;;;;;;5082961;28;20451;-59
2021/06/13 00:10:32;;;;;;;0.80;0.70;;;28.20;58.80;;;;;;5081365;28;20455;-59
2021/06/13 00:13:02;;;;;;;0.60;0.60;;;28.10;60.10;;;;;;5083171;28;20483;-59
2021/06/13 00:15:33;;;;;;;0.80;0.80;;;27.90;59.20;;;;;;5082750;28;20810;-59
2021/06/13 00:18:03;;;;;;;0.73;0.73;;;27.70;59.70;;;;;;5083211;28;20566;-59
2021/06/13 00:20:34;;;;;;;1.10;1.10;;;27.70;59.20;;;;;;5082203;28;20456;-59
2021/06/13 00:23:05;;;;;;;0.60;0.60;;;27.40;59.60;;;;;;5082664;28;20446;-58
2021/06/13 00:25:37;;;;;;;1.00;0.80;;;27.30;60.70;;;;;;5081877;28;20505;-59
2021/06/13 00:28:08;;;;;;;0.70;0.70;;;27.20;62.20;;;;;;5083189;28;20447;-59
2021/06/13 00:30:38;;;;;;;1.20;1.10;;;27.10;62.00;;;;;;5082082;28;20470;-59
2021/06/13 00:33:10;;;;;;;2.20;0.80;;;27.00;63.00;;;;;;5082809;28;20451;-59
2021/06/13 00:35:40;;;;;;;0.70;0.70;;;26.90;63.50;;;;;;5082169;28;20446;-59
2021/06/13 00:38:11;;;;;;;1.33;0.80;;;26.90;65.60;;;;;;5082449;28;20516;-59
2021/06/13 00:40:43;;;;;;;0.70;0.70;;;26.80;63.20;;;;;;5081701;28;20456;-59
2021/06/13 00:43:14;;;;;;;1.17;0.90;;;26.60;61.80;;;;;;5068357;28;20473;-59
2021/06/13 00:45:45;;;;;;;1.80;0.80;;;26.50;63.40;;;;;;5082223;28;20506;-59
2021/06/13 00:48:16;;;;;;;0.60;0.60;;;26.40;62.50;;;;;;5074866;28;20452;-59
2021/06/13 00:50:49;;;;;;;0.87;0.87;;;26.40;63.60;;;;;;5080173;28;20543;-59
2021/06/13 00:53:20;;;;;;;1.23;1.03;;;26.20;63.80;;;;;;5082167;28;20454;-58
2021/06/13 00:55:53;;;;;;;1.10;1.00;;;26.20;63.40;;;;;;5081695;28;20464;-59
2021/06/13 00:58:24;;;;;;;0.83;0.70;;;26.10;65.10;;;;;;5082527;28;20488;-58
2021/06/13 01:00:54;;;;;;;1.03;0.93;;;25.90;65.30;;;;;;5081888;28;20451;-59
2021/06/13 01:03:25;;;;;;;0.90;0.70;;;25.80;67.20;;;;;;5082340;28;20467;-58
2021/06/13 01:05:55;;;;;;;0.93;0.93;;;25.80;66.80;;;;;;5081532;28;20492;-58
2021/06/13 01:08:43;;;;;;;1.00;0.90;;;25.80;67.10;;;;;;5082616;28;20453;-58
2021/06/13 01:11:25;;;;;;;1.17;1.00;;;25.60;68.00;;;;;;5081383;28;20511;-59
2021/06/13 01:14:04;;;;;;;0.90;0.90;;;25.60;68.00;;;;;;5081986;28;20452;-58
2021/06/13 01:16:41;;;;;;;0.80;0.80;;;25.40;69.50;;;;;;5082142;28;20950;-58
2021/06/13 01:19:32;;;;;;;1.10;1.00;;;25.40;69.30;;;;;;5081899;28;20611;-59
2021/06/13 01:22:22;;;;;;;0.97;0.97;;;25.30;70.40;;;;;;5067286;28;20450;-59
2021/06/13 01:25:06;;;;;;;0.90;0.83;;;25.10;72.20;;;;;;5080889;28;20539;-59
2021/06/13 01:27:54;;;;;;;0.90;0.90;;;24.90;73.90;;;;;;5082300;28;20522;-58
2021/06/13 01:30:31;;;;;;;1.00;0.90;;;24.70;74.20;;;;;;5081922;28;20471;-58
2021/06/13 01:33:05;;;;;;;1.00;1.00;;;24.70;79.10;;;;;;5080723;28;20530;-58
2021/06/13 01:35:38;;;;;;;1.40;1.40;;;24.60;81.20;;;;;;5081324;28;20534;-59
2021/06/13 01:38:12;;;;;;;1.43;1.33;;;24.50;83.00;;;;;;5084828;28;20552;-59
2021/06/13 01:40:44;;;;;;;1.57;1.30;;;24.40;84.50;;;;;;5083127;28;20447;-58
2021/06/13 01:43:16;;;;;;;1.10;1.10;;;24.20;87.50;;;;;;5084934;28;20451;-57
2021/06/13 01:45:50;;;;;;;1.30;1.20;;;24.10;91.50;;;;;;5074979;28;20463;-58
2021/06/13 01:48:22;;;;;;;2.10;1.90;;;23.80;92.90;;;;;;5077358;28;20498;-58
2021/06/13 01:50:56;;;;;;;2.00;1.80;;;23.50;95.10;;;;;;5084530;28;20524;-58
2021/06/13 01:53:28;;;;;;;1.57;1.47;;;23.20;99.50;;;;;;5085278;28;20481;-58
2021/06/13 01:55:59;;;;;;;1.47;1.37;;;23.00;99.90;;;;;;5069037;28;20430;-57
2021/06/13 01:58:30;;;;;;;1.70;1.60;;;22.90;99.90;;;;;;5084960;28;20494;-56
2021/06/13 02:01:02;;;;;;;1.40;1.30;;;22.80;99.90;;;;;;5085255;28;20458;-55
2021/06/13 02:03:33;;;;;;;3.50;2.70;;;22.70;99.90;;;;;;5085090;28;20940;-56
2021/06/13 02:06:05;;;;;;;3.47;2.67;;;22.50;99.90;;;;;;5085419;28;20823;-54
2021/06/13 02:08:36;;;;;;;2.27;2.07;;;22.50;99.90;;;;;;5085279;28;20567;-56
2021/06/13 02:11:09;;;;;;;2.30;2.10;;;22.40;99.90;;;;;;5083784;28;20495;-55
2021/06/13 02:13:43;;;;;;;2.37;2.17;;;22.20;99.90;;;;;;5084028;28;20483;-52
2021/06/13 02:16:16;;;;;;;2.50;2.30;;;22.10;99.90;;;;;;5084909;28;20458;-50
2021/06/13 02:18:49;;;;;;;2.70;2.50;;;22.00;99.90;;;;;;5084998;28;20505;-55
2021/06/13 02:21:20;;;;;;;3.33;3.03;;;21.90;99.90;;;;;;5085364;28;20443;-55
2021/06/13 02:23:51;;;;;;;2.73;2.53;;;21.80;99.90;;;;;;5084497;28;20521;-54
2021/06/13 02:26:22;;;;;;;3.53;3.23;;;21.60;99.90;;;;;;5084130;28;20430;-54
2021/06/13 02:28:54;;;;;;;3.20;2.90;;;21.50;99.90;;;;;;5084542;28;20447;-51
2021/06/13 02:31:30;;;;;;;3.13;2.83;;;21.50;99.90;;;;;;5085051;28;20548;-54
2021/06/13 02:34:02;;;;;;;3.33;3.13;;;21.50;99.90;;;;;;5083846;28;20425;-52
2021/06/13 02:36:33;;;;;;;3.23;2.93;;;21.50;99.90;;;;;;5084918;28;20425;-52
2021/06/13 02:39:05;;;;;;;3.23;3.03;;;21.40;99.90;;;;;;5082797;28;20465;-50
2021/06/13 02:41:35;;;;;;;2.80;2.60;;;21.20;99.90;;;;;;5083347;28;20452;-49
2021/06/13 02:44:06;;;;;;;3.33;2.37;;;21.20;99.90;;;;;;5083275;28;20614;-53
2021/06/13 02:46:39;;;;;;;2.80;2.60;;;21.10;99.90;;;;;;5080101;28;20446;-55
2021/06/13 02:49:11;;;;;;;2.97;2.77;;;21.00;99.90;;;;;;5080673;28;20521;-54
2021/06/13 02:51:50;;;;;;;2.57;2.37;;;20.80;99.90;;;;;;5083738;28;20422;-51
2021/06/13 02:54:21;;;;;;;3.97;2.80;;;20.80;99.90;;;;;;5081623;28;20468;-54
2021/06/13 02:56:56;;;;;;;4.20;3.20;;;20.70;99.90;;;;;;5082974;28;20580;-51
2021/06/13 02:59:33;;;;;;;3.10;2.77;;;20.60;99.90;;;;;;5081843;28;20445;-50
2021/06/13 03:02:08;;;;;;;3.20;3.00;;;20.40;99.90;;;;;;5083140;28;20501;-50
2021/06/13 03:04:41;;;;;;;3.10;2.60;;;20.40;99.90;;;;;;5082493;28;20519;-57
2021/06/13 03:07:16;;;;;;;2.73;2.53;;;20.50;99.90;;;;;;5081958;28;20422;-55
2021/06/13 03:09:49;;;;;;;6.77;3.27;;;20.40;99.90;;;;;;5082419;28;20443;-55
2021/06/13 03:12:20;;;;;;;3.43;3.13;;;20.20;99.90;;;;;;5080161;28;20451;-56
2021/06/13 03:14:52;;;;;;;3.17;2.73;;;20.20;99.90;;;;;;5083224;28;20434;-53
2021/06/13 03:17:25;;;;;;;2.77;2.57;;;20.10;99.90;;;;;;5083792;28;20430;-50
2021/06/13 03:19:57;;;;;;;4.20;2.93;;;20.00;99.90;;;;;;5081805;28;20456;-52
2021/06/13 03:22:28;;;;;;;2.83;2.63;;;20.00;99.90;;;;;;5083785;28;20454;-53
2021/06/13 03:25:01;;;;;;;3.00;2.67;;;19.90;99.90;;;;;;5082522;28;20451;-53
2021/06/13 03:27:33;;;;;;;3.00;2.80;;;19.90;99.90;;;;;;5083368;28;20430;-53
2021/06/13 03:30:04;;;;;;;3.00;2.80;;;19.80;99.90;;;;;;5082679;28;20820;-51
2021/06/13 03:32:36;;;;;;;2.50;2.40;;;19.70;99.90;;;;;;5083362;28;20450;-52
2021/06/13 03:35:09;;;;;;;2.97;2.70;;;19.70;99.90;;;;;;5083086;28;20441;-54
2021/06/13 03:37:41;;;;;;;3.60;3.40;;;19.60;99.90;;;;;;5082476;28;20438;-54
2021/06/13 03:40:13;;;;;;;3.10;2.90;;;19.50;99.90;;;;;;5080863;28;20447;-51
2021/06/13 03:42:45;;;;;;;3.10;2.90;;;19.40;99.90;;;;;;5078742;28;20459;-56
2021/06/13 03:45:19;;;;;;;3.00;2.80;;;19.40;99.90;;;;;;5082785;28;20527;-54
2021/06/13 03:47:53;;;;;;;3.17;2.97;;;19.40;99.90;;;;;;5079158;28;20451;-52
2021/06/13 03:50:25;;;;;;;5.83;3.50;;;19.40;99.90;;;;;;5078845;28;20446;-53
2021/06/13 03:52:56;;;;;;;3.93;3.63;;;19.50;99.90;;;;;;5082309;28;20418;-60
2021/06/13 03:55:27;;;;;;;4.33;3.17;;;19.60;99.90;;;;;;5080836;28;20487;-53
2021/06/13 03:57:58;;;;;;;3.10;2.90;;;19.50;99.90;;;;;;5082079;28;20517;-52
2021/06/13 04:00:31;;;;;;;3.20;2.80;;;19.50;99.90;;;;;;5081198;28;20462;-60
2021/06/13 04:03:06;;;;;;;3.10;2.90;;;19.60;99.90;;;;;;5082007;28;20523;-60
2021/06/13 04:05:37;;;;;;;3.20;3.00;;;19.60;99.90;;;;;;5082039;28;20426;-60
2021/06/13 04:08:11;;;;;;;4.20;2.83;;;19.50;99.90;;;;;;5078829;28;20422;-61
2021/06/13 04:10:46;;;;;;;3.00;2.80;;;19.50;99.90;;;;;;5080292;28;20410;-61
2021/06/13 04:13:19;;;;;;;3.97;3.57;;;19.60;99.90;;;;;;5082671;28;20447;-61
2021/06/13 04:15:50;;;;;;;3.63;3.33;;;19.40;99.90;;;;;;5082462;28;20452;-60
2021/06/13 04:18:23;;;;;;;3.30;3.10;;;19.30;99.90;;;;;;5082364;28;20494;-59
2021/06/13 04:20:55;;;;;;;4.30;3.83;;;19.30;99.90;;;;;;5082168;28;20474;-55
2021/06/13 04:23:27;;;;;;;4.53;3.30;;;19.20;99.90;;;;;;5083282;28;20444;-57
2021/06/13 04:25:59;;;;;;;4.50;3.27;;;19.00;99.90;;;;;;5081081;28;20505;-57
2021/06/13 04:28:30;;;;;;;3.70;3.10;;;19.00;99.90;;;;;;5082821;28;20430;-58
2021/06/13 04:31:13;;;;;;;4.50;3.40;;;18.90;99.90;;;;;;5082065;28;20468;-60
2021/06/13 04:33:47;;;;;;;4.00;3.57;;;18.90;99.90;;;;;;5081858;28;20426;-59
2021/06/13 04:36:21;;;;;;;4.67;4.10;;;18.90;99.90;;;;;;5080405;28;20482;-58
2021/06/13 04:38:52;;;;;;;4.00;3.70;;;18.90;99.90;;;;;;5082338;28;20479;-58
2021/06/13 04:41:23;;;;;;;3.73;3.53;;;18.80;99.90;;;;;;5080578;28;20455;-57
2021/06/13 04:43:54;;;;;;;5.73;4.30;;;18.80;99.90;;;;;;5082878;28;20482;-60
2021/06/13 04:46:28;;;;;;;3.57;3.27;;;18.70;99.90;;;;;;5082030;28;20475;-60
2021/06/13 04:49:00;;;;;;;4.07;3.63;;;18.70;99.90;;;;;;5072408;28;21196;-60
2021/06/13 04:51:34;;;;;;;3.90;3.70;;;18.70;99.90;;;;;;5082250;28;20459;-59
2021/06/13 04:54:26;;;;;;;3.63;3.40;;;18.70;99.90;;;;;;5081266;28;20444;-61
2021/06/13 04:57:09;;;;;;;3.93;3.63;;;18.80;99.90;;;;;;5082098;28;20489;-62
2021/06/13 04:59:40;;;;;;;4.50;4.20;;;18.90;99.90;;;;;;5081798;28;20450;-60
2021/06/13 05:02:11;;;;;;;4.23;3.93;;;18.80;99.90;;;;;;5081805;28;20448;-61
2021/06/13 05:04:44;;;;;;;3.90;3.60;;;18.60;99.90;;;;;;5081533;28;20422;-59
2021/06/13 05:07:15;;;;;;;4.30;4.00;;;18.60;99.90;;;;;;5081396;28;20426;-60
2021/06/13 05:09:46;;;;;;;4.00;3.70;;;18.70;99.90;;;;;;5065132;28;20444;-59
2021/06/13 05:12:17;;;;;;;3.53;3.33;;;18.60;99.90;;;;;;5083065;28;20467;-60
2021/06/13 05:14:48;;;;;;;7.30;6.80;;;18.60;99.90;;;;;;5086060;28;20444;-60
2021/06/13 05:17:19;;;;;;;4.37;4.03;;;18.50;99.90;;;;;;5086171;28;20467;-60
2021/06/13 05:19:52;;;;;;;18.07;16.33;;;18.50;99.90;;;;;;5085368;28;20485;-60
2021/06/13 05:22:23;;;;;;;5.37;4.87;;;18.40;99.90;;;;;;5086101;28;20592;-59
2021/06/13 05:24:54;;;;;;;4.97;4.57;;;18.40;99.90;;;;;;5085110;28;20477;-60
2021/06/13 05:27:25;;;;;;;4.73;4.43;;;18.50;99.90;;;;;;5085607;28;20479;-59
2021/06/13 05:29:56;;;;;;;4.17;3.87;;;18.50;99.90;;;;;;5085679;28;20469;-59
2021/06/13 05:32:27;;;;;;;4.40;4.10;;;18.40;99.90;;;;;;5085794;28;20451;-58
2021/06/13 05:34:59;;;;;;;5.33;4.50;;;18.40;99.90;;;;;;5081726;28;20451;-56
2021/06/13 05:37:30;;;;;;;5.40;5.00;;;18.40;99.90;;;;;;5085607;28;20451;-59
2021/06/13 05:40:01;;;;;;;5.43;4.87;;;18.30;99.90;;;;;;5083811;28;20483;-59
2021/06/13 05:42:32;;;;;;;5.37;4.97;;;18.40;99.90;;;;;;5085446;28;20499;-59
2021/06/13 05:45:04;;;;;;;4.97;4.60;;;18.50;99.90;;;;;;5085379;28;20904;-58
2021/06/13 05:47:38;;;;;;;5.30;4.80;;;18.40;99.90;;;;;;5085732;28;20517;-58
2021/06/13 05:50:13;;;;;;;4.80;4.40;;;18.50;99.90;;;;;;5085229;28;20483;-56
2021/06/13 05:52:46;;;;;;;4.53;4.17;;;18.50;99.90;;;;;;5086065;28;20848;-59
2021/06/13 05:55:25;;;;;;;4.37;4.07;;;18.40;99.90;;;;;;5083940;28;20932;-59
2021/06/13 05:57:56;;;;;;;5.37;4.57;;;18.40;99.90;;;;;;5084776;28;20447;-57
2021/06/13 06:00:29;;;;;;;5.63;4.70;;;18.40;99.90;;;;;;5085162;28;20505;-55
2021/06/13 06:03:00;;;;;;;4.87;4.47;;;18.30;99.90;;;;;;5085431;28;20463;-55
2021/06/13 06:05:34;;;;;;;5.03;4.63;;;18.30;99.90;;;;;;5080502;28;20463;-58
2021/06/13 06:08:05;;;;;;;4.23;4.00;;;18.50;99.90;;;;;;5083979;28;20463;-57
2021/06/13 06:10:37;;;;;;;5.90;4.20;;;18.40;99.90;;;;;;5070920;28;20516;-57
2021/06/13 06:13:08;;;;;;;4.73;4.33;;;18.30;99.90;;;;;;5084966;28;20448;-55
2021/06/13 06:15:41;;;;;;;6.03;5.43;;;18.40;99.90;;;;;;5081756;28;20475;-57
2021/06/13 06:18:12;;;;;;;4.80;4.40;;;18.50;99.90;;;;;;5084848;28;20448;-56
2021/06/13 06:20:45;;;;;;;4.63;4.30;;;18.50;99.90;;;;;;5084449;28;20483;-56
2021/06/13 06:23:16;;;;;;;5.40;5.00;;;18.50;99.90;;;;;;5076521;28;20463;-54
2021/06/13 06:25:47;;;;;;;6.80;4.77;;;18.50;99.90;;;;;;5079473;28;20451;-55
2021/06/13 06:28:18;;;;;;;9.03;5.30;;;18.40;99.90;;;;;;5084547;28;20454;-59
2021/06/13 06:30:49;;;;;;;4.33;4.00;;;18.20;99.90;;;;;;5085678;28;20501;-59
2021/06/13 06:33:20;;;;;;;4.30;3.80;;;18.20;99.90;;;;;;5084948;28;20510;-59
2021/06/13 06:35:53;;;;;;;4.60;3.80;;;18.10;99.90;;;;;;5084687;28;20800;-60
2021/06/13 06:38:24;;;;;;;4.40;4.00;;;18.00;99.90;;;;;;5084569;28;20445;-59
2021/06/13 06:40:58;;;;;;;3.80;3.50;;;18.00;99.90;;;;;;5083749;28;20483;-59
2021/06/13 06:43:29;;;;;;;4.67;4.27;;;18.00;99.90;;;;;;5084665;28;20451;-59
2021/06/13 06:46:01;;;;;;;4.10;3.80;;;18.00;99.90;;;;;;5083476;28;20511;-59
2021/06/13 06:48:32;;;;;;;5.13;4.70;;;18.00;99.90;;;;;;5084093;28;20448;-57
2021/06/13 06:51:04;;;;;;;4.50;4.20;;;18.00;99.90;;;;;;5084011;28;20477;-57
2021/06/13 06:53:36;;;;;;;4.20;3.90;;;18.10;99.90;;;;;;5084571;28;20450;-58
2021/06/13 06:56:09;;;;;;;5.77;5.27;;;18.10;99.90;;;;;;5083097;28;20464;-59
2021/06/13 06:58:40;;;;;;;6.13;5.50;;;18.10;99.90;;;;;;5083559;28;20452;-54
2021/06/13 07:01:14;;;;;;;5.23;4.80;;;18.10;99.90;;;;;;5083963;28;20463;-59
2021/06/13 07:03:45;;;;;;;4.67;4.33;;;18.10;99.90;;;;;;5083658;28;20447;-55
2021/06/13 07:06:20;;;;;;;4.10;3.80;;;18.10;99.90;;;;;;5083668;28;20443;-55
2021/06/13 07:08:51;;;;;;;5.13;4.63;;;18.10;99.90;;;;;;5083650;28;20539;-56
2021/06/13 07:11:22;;;;;;;3.90;3.60;;;18.10;99.90;;;;;;5083232;28;20459;-56
2021/06/13 07:13:53;;;;;;;3.63;3.33;;;18.00;99.90;;;;;;5078713;28;20443;-52
2021/06/13 07:16:24;;;;;;;3.60;3.30;;;18.00;99.90;;;;;;5084481;28;21092;-56
2021/06/13 07:18:55;;;;;;;4.50;4.10;;;18.00;99.90;;;;;;5083078;28;20468;-53
2021/06/13 07:21:28;;;;;;;4.17;3.87;;;18.00;99.90;;;;;;5083951;28;20551;-52
2021/06/13 07:23:59;;;;;;;4.13;3.20;;;17.90;99.90;;;;;;5083454;28;20475;-57
2021/06/13 07:26:30;;;;;;;4.10;3.80;;;17.90;99.90;;;;;;5083868;28;20480;-55
2021/06/13 07:29:01;;;;;;;4.47;3.33;;;17.90;99.90;;;;;;5082749;28;20474;-52
2021/06/13 07:31:32;;;;;;;5.67;4.37;;;17.90;99.90;;;;;;5084450;28;20516;-54
2021/06/13 07:34:03;;;;;;;3.47;3.17;;;17.90;99.90;;;;;;5082850;28;20437;-54
2021/06/13 07:36:36;;;;;;;3.27;3.07;;;17.90;99.90;;;;;;5083596;28;20460;-54
2021/06/13 07:39:07;;;;;;;3.87;3.27;;;17.90;99.90;;;;;;5081795;28;20494;-56
2021/06/13 07:41:38;;;;;;;3.17;2.97;;;17.90;99.90;;;;;;5083564;28;20505;-54
2021/06/13 07:44:09;;;;;;;3.00;2.80;;;17.90;99.90;;;;;;5077461;28;20447;-54
2021/06/13 07:46:40;;;;;;;3.07;2.77;;;17.90;99.90;;;;;;5084250;28;20511;-53
2021/06/13 07:49:11;;;;;;;2.90;2.70;;;17.90;99.90;;;;;;5083039;28;20451;-53
2021/06/13 07:51:44;;;;;;;3.90;3.60;;;17.90;99.90;;;;;;5083663;28;20944;-52
2021/06/13 07:54:15;;;;;;;3.57;3.30;;;17.80;99.90;;;;;;5082459;28;20520;-54
2021/06/13 07:56:46;;;;;;;3.87;3.60;;;17.80;99.90;;;;;;5083379;28;20443;-56
2021/06/13 07:59:17;;;;;;;3.83;3.63;;;17.70;99.90;;;;;;5083093;28;20507;-55
2021/06/13 08:01:48;;;;;;;4.07;3.77;;;17.80;99.90;;;;;;5087603;28;20449;-57
2021/06/13 08:04:20;;;;;;;4.50;4.20;;;17.80;99.90;;;;;;5083080;28;20451;-53
2021/06/13 08:06:52;;;;;;;4.53;4.13;;;17.80;99.90;;;;;;5082821;28;20894;-53
2021/06/13 08:09:23;;;;;;;5.13;4.73;;;17.80;99.90;;;;;;5081594;28;20467;-56
2021/06/13 08:11:54;;;;;;;5.07;4.57;;;17.80;99.90;;;;;;5082777;28;20448;-52
2021/06/13 08:14:25;;;;;;;4.50;4.10;;;17.70;99.90;;;;;;5082184;28;20641;-56
2021/06/13 08:16:56;;;;;;;4.50;4.10;;;17.70;99.90;;;;;;5083239;28;20486;-56
2021/06/13 08:19:27;;;;;;;4.27;4.07;;;17.70;99.90;;;;;;5082165;28;20654;-57
2021/06/13 08:22:00;;;;;;;4.10;3.80;;;17.60;99.90;;;;;;5083019;28;20487;-57
2021/06/13 08:24:31;;;;;;;4.27;3.97;;;17.70;99.90;;;;;;5081720;28;20517;-57
2021/06/13 08:27:01;;;;;;;5.07;4.57;;;17.70;99.90;;;;;;5082520;28;20467;-58
2021/06/13 08:29:36;;;;;;;5.03;4.67;;;17.70;99.90;;;;;;5082289;28;20459;-58
2021/06/13 08:32:08;;;;;;;5.30;4.83;;;17.70;99.90;;;;;;5083160;28;20479;-58
2021/06/13 08:34:39;;;;;;;5.23;4.83;;;17.70;99.90;;;;;;5082428;28;20461;-57
2021/06/13 08:37:11;;;;;;;5.07;4.67;;;17.70;99.90;;;;;;5082261;28;20475;-57
2021/06/13 08:39:42;;;;;;;5.83;5.33;;;17.70;99.90;;;;;;5081141;28;20574;-57
2021/06/13 08:42:14;;;;;;;4.73;3.90;;;17.70;99.90;;;;;;5082262;28;20501;-56
2021/06/13 08:44:45;;;;;;;5.13;4.73;;;17.80;99.90;;;;;;5082513;28;20493;-52
2021/06/13 08:47:19;;;;;;;5.07;4.67;;;17.80;99.90;;;;;;5082872;28;20454;-54
2021/06/13 08:49:51;;;;;;;3.90;3.70;;;17.90;99.90;;;;;;5085967;28;20519;-51
2021/06/13 08:52:23;;;;;;;3.80;3.50;;;17.80;99.90;;;;;;5086331;28;20481;-50
2021/06/13 08:54:54;;;;;;;3.73;3.43;;;17.80;99.90;;;;;;5085302;28;20463;-53
2021/06/13 08:57:25;;;;;;;3.40;3.20;;;17.80;99.90;;;;;;5071188;28;20446;-55
2021/06/13 08:59:58;;;;;;;4.00;3.70;;;17.80;99.90;;;;;;5086012;28;20451;-52
2021/06/13 09:02:29;;;;;;;3.53;3.33;;;17.80;99.90;;;;;;5086381;28;20470;-54
2021/06/13 09:04:59;;;;;;;3.67;3.37;;;17.80;99.90;;;;;;5086001;28;20474;-54
2021/06/13 09:07:34;;;;;;;3.60;3.40;;;17.80;99.90;;;;;;5074669;28;20452;-53
2021/06/13 09:10:11;;;;;;;3.43;3.23;;;17.80;99.90;;;;;;5084308;28;20587;-52
2021/06/13 09:12:41;;;;;;;3.10;2.90;;;17.80;99.90;;;;;;5086573;28;20458;-49
2021/06/13 09:15:18;;;;;;;2.70;2.50;;;17.80;99.90;;;;;;5085922;28;20447;-53
2021/06/13 09:17:48;;;;;;;2.33;2.13;;;17.80;99.90;;;;;;5086332;28;20418;-53
2021/06/13 09:20:23;;;;;;;2.20;2.00;;;17.90;99.90;;;;;;5083190;28;20470;-53
2021/06/13 09:23:22;;;;;;;3.17;1.70;;;18.10;99.90;;;;;;5086150;28;20564;-50
2021/06/13 09:26:00;;;;;;;2.43;2.23;;;18.10;99.90;;;;;;5047322;28;20512;-55
2021/06/13 09:28:35;;;;;;;1.90;1.80;;;18.20;99.90;;;;;;5063122;28;20476;-53
2021/06/13 09:31:07;;;;;;;1.80;1.70;;;18.20;99.90;;;;;;5062633;28;20546;-54
2021/06/13 09:33:39;;;;;;;1.97;1.87;;;18.10;99.90;;;;;;5063476;28;20479;-54
2021/06/13 09:36:11;;;;;;;1.87;1.77;;;18.10;99.90;;;;;;5063233;28;20476;-54
2021/06/13 09:38:46;;;;;;;2.00;1.80;;;18.10;99.90;;;;;;5063040;28;20528;-50
2021/06/13 09:41:20;;;;;;;2.23;2.03;;;18.20;99.90;;;;;;5061676;28;20593;-53
2021/06/13 09:43:52;;;;;;;1.30;1.30;;;18.20;99.90;;;;;;5063246;28;20573;-55
2021/06/13 09:46:25;;;;;;;2.53;2.43;;;18.10;99.90;;;;;;5063004;28;20965;-51
2021/06/13 09:48:58;;;;;;;2.13;1.93;;;18.10;99.90;;;;;;5062924;28;21024;-54
2021/06/13 09:51:33;;;;;;;1.70;1.60;;;18.10;99.90;;;;;;5061740;28;20634;-54
2021/06/13 09:54:07;;;;;;;2.17;1.90;;;18.00;99.90;;;;;;5061721;28;20554;-54
2021/06/13 09:56:39;;;;;;;1.67;1.57;;;18.00;99.90;;;;;;5063395;28;20448;-52
2021/06/13 09:59:11;;;;;;;2.10;1.90;;;18.00;99.90;;;;;;5062059;28;20447;-54
2021/06/13 10:01:43;;;;;;;1.97;1.87;;;18.00;99.90;;;;;;5079491;28;20513;-52
2021/06/13 10:04:28;;;;;;;1.87;1.77;;;18.00;99.90;;;;;;5077796;28;20451;-57
2021/06/13 10:07:02;;;;;;;2.00;1.90;;;17.90;99.90;;;;;;5085432;28;20447;-54
2021/06/13 10:09:42;;;;;;;2.60;1.93;;;18.00;99.90;;;;;;5083114;28;20517;-58
2021/06/13 10:12:15;;;;;;;2.03;1.93;;;18.00;99.90;;;;;;5085060;28;20856;-58
2021/06/13 10:14:48;;;;;;;2.00;1.90;;;17.90;99.90;;;;;;5084377;28;20451;-58
2021/06/13 10:17:19;;;;;;;1.90;1.80;;;17.90;99.90;;;;;;5084268;28;20451;-58
2021/06/13 10:19:51;;;;;;;1.80;1.70;;;17.90;99.90;;;;;;5078763;28;20448;-56
2021/06/13 10:22:23;;;;;;;1.70;1.60;;;18.00;99.90;;;;;;5085053;28;20475;-58
2021/06/13 10:24:59;;;;;;;2.33;2.13;;;17.90;99.90;;;;;;5083731;28;20458;-54
2021/06/13 10:27:30;;;;;;;2.90;1.90;;;17.90;99.90;;;;;;5085203;28;20490;-57
2021/06/13 10:30:02;;;;;;;1.80;1.70;;;17.90;99.90;;;;;;5083650;28;20543;-60
2021/06/13 10:32:33;;;;;;;2.30;2.10;;;17.90;99.90;;;;;;5084520;28;20458;-56
2021/06/13 10:35:06;;;;;;;2.20;1.97;;;17.90;99.90;;;;;;5067715;28;20447;-58
2021/06/13 10:37:37;;;;;;;1.73;1.63;;;17.80;99.90;;;;;;5084873;28;20491;-54
2021/06/13 10:40:12;;;;;;;2.30;2.10;;;17.70;99.90;;;;;;5082680;28;20504;-58
2021/06/13 10:42:43;;;;;;;1.83;1.70;;;17.70;99.90;;;;;;5084574;28;20558;-58
2021/06/13 10:45:19;;;;;;;3.20;2.23;;;17.70;99.90;;;;;;5081616;28;20444;-57
2021/06/13 10:48:09;;;;;;;2.20;2.10;;;17.70;99.90;;;;;;5084054;28;20466;-59
2021/06/13 10:50:41;;;;;;;1.87;1.70;;;17.70;99.90;;;;;;5083261;28;20549;-59
2021/06/13 10:53:12;;;;;;;1.57;1.47;;;17.70;99.90;;;;;;5084320;28;20435;-59
2021/06/13 10:55:52;;;;;;;2.40;2.00;;;17.70;99.90;;;;;;5082755;28;20439;-60
2021/06/13 10:58:50;;;;;;;2.90;1.60;;;17.70;99.90;;;;;;5084622;28;20436;-60
2021/06/13 11:01:28;;;;;;;1.63;1.53;;;17.60;99.90;;;;;;5083326;28;20448;-60
2021/06/13 11:04:03;;;;;;;2.30;1.70;;;17.70;99.90;;;;;;5083331;28;20471;-60
2021/06/13 11:06:47;;;;;;;1.13;1.10;;;17.70;99.90;;;;;;5084267;28;20458;-61
2021/06/13 11:09:18;;;;;;;1.90;1.70;;;17.70;99.90;;;;;;5072921;28;20455;-60
2021/06/13 11:11:55;;;;;;;1.53;1.43;;;17.70;99.90;;;;;;5083298;28;20437;-61
2021/06/13 11:14:27;;;;;;;2.83;2.03;;;17.70;99.90;;;;;;5083552;28;20500;-60
2021/06/13 11:16:59;;;;;;;1.80;1.70;;;17.70;99.90;;;;;;5084120;28;20463;-61
2021/06/13 11:19:34;;;;;;;1.50;1.40;;;17.60;99.90;;;;;;5082856;28;20451;-61
2021/06/13 11:22:35;;;;;;;1.70;1.60;;;17.60;99.90;;;;;;5083447;28;20522;-61
2021/06/13 11:25:20;;;;;;;1.50;1.40;;;17.60;99.90;;;;;;5070608;28;20447;-61
2021/06/13 11:28:16;;;;;;;1.53;1.43;;;17.60;99.90;;;;;;5083657;28;20473;-60
2021/06/13 11:30:49;;;;;;;1.40;1.30;;;17.60;99.90;;;;;;5082879;28;20459;-60
2021/06/13 11:33:38;;;;;;;2.20;1.40;;;17.60;99.90;;;;;;5083230;28;20447;-60
2021/06/13 11:36:30;;;;;;;1.50;1.40;;;17.60;99.90;;;;;;5082702;28;20893;-60
2021/06/13 11:39:19;;;;;;;1.40;1.30;;;17.60;99.90;;;;;;5082186;28;20425;-60
2021/06/13 11:41:51;;;;;;;1.70;1.60;;;17.60;99.90;;;;;;5066407;28;20487;-60
2021/06/13 11:44:41;;;;;;;1.50;1.40;;;17.60;99.90;;;;;;5083386;28;20439;-60
2021/06/13 11:47:43;;;;;;;1.70;1.60;;;17.60;99.90;;;;;;5070016;28;20479;-59
2021/06/13 11:50:16;;;;;;;1.70;1.60;;;17.60;99.90;;;;;;5077784;28;20478;-59
2021/06/13 11:53:05;;;;;;;1.60;1.50;;;17.60;99.90;;;;;;5082908;28;20508;-60
2021/06/13 11:56:03;;;;;;;1.63;1.53;;;17.60;99.90;;;;;;5070956;28;20452;-58
2021/06/13 11:58:35;;;;;;;4.20;2.10;;;17.50;99.90;;;;;;5083060;28;20455;-58
2021/06/13 12:01:08;;;;;;;1.50;1.40;;;17.60;99.90;;;;;;5067186;28;20482;-58
2021/06/13 12:03:41;;;;;;;2.33;2.13;;;17.70;99.90;;;;;;5073562;28;20517;-58
2021/06/13 12:06:18;;;;;;;1.73;1.63;;;17.70;99.90;;;;;;5082823;28;20454;-57
2021/06/13 12:08:52;;;;;;;4.63;2.90;;;17.70;99.90;;;;;;5082367;28;20451;-56
2021/06/13 12:11:33;;;;;;;4.90;1.97;;;17.60;99.90;;;;;;5082154;28;20466;-55
2021/06/13 12:14:34;;;;;;;1.90;1.80;;;17.60;99.90;;;;;;5082404;28;20530;-56
2021/06/13 12:17:13;;;;;;;1.90;1.80;;;17.50;99.90;;;;;;5006038;28;20457;-54
2021/06/13 12:19:46;;;;;;;1.43;1.43;;;17.50;99.90;;;;;;5023741;28;20767;-56
2021/06/13 12:22:31;;;;;;;1.77;1.67;;;17.50;99.90;;;;;;5027186;28;20481;-52
2021/06/13 12:27:53;;;;;;;2.00;1.90;;;17.60;99.90;;;;;;5011435;28;20541;-56
2021/06/13 12:30:26;;;;;;;1.97;1.87;;;17.60;99.90;;;;;;5038320;28;20863;-54
2021/06/13 12:33:02;;;;;;;2.33;2.03;;;17.60;99.90;;;;;;5039472;28;20760;-53
2021/06/13 12:35:34;;;;;;;2.97;2.10;;;17.60;99.90;;;;;;5033708;28;20488;-55
2021/06/13 12:38:06;;;;;;;2.00;1.90;;;17.70;99.90;;;;;;5026485;28;20476;-53
2021/06/13 12:40:39;;;;;;;2.30;2.10;;;17.70;99.90;;;;;;5027301;28;20652;-56
2021/06/13 12:43:11;;;;;;;2.43;2.23;;;17.60;99.90;;;;;;5039143;28;20517;-54
2021/06/13 12:45:43;;;;;;;2.20;2.10;;;17.60;99.90;;;;;;5020249;28;20469;-52
2021/06/13 12:48:21;;;;;;;1.93;1.83;;;17.60;99.90;;;;;;5022961;28;20450;-51
2021/06/13 12:50:52;;;;;;;2.20;2.00;;;17.50;99.90;;;;;;5027886;28;20509;-52
2021/06/13 12:53:31;;;;;;;4.00;2.37;;;17.50;99.90;;;;;;5064471;28;20482;-51
2021/06/13 12:56:02;;;;;;;2.53;2.43;;;17.60;99.90;;;;;;5081502;28;20539;-53
2021/06/13 12:58:40;;;;;;;2.50;2.30;;;17.60;99.90;;;;;;5082472;28;20456;-54
2021/06/13 13:01:13;;;;;;;2.60;2.50;;;17.50;99.90;;;;;;5082400;28;20447;-53
2021/06/13 13:03:46;;;;;;;2.60;2.40;;;17.60;99.90;;;;;;5082186;28;20505;-55
2021/06/13 13:06:17;;;;;;;3.80;2.83;;;17.60;99.90;;;;;;5082581;28;20467;-51
2021/06/13 13:08:49;;;;;;;2.80;2.60;;;17.70;99.90;;;;;;5082215;28;20452;-54
2021/06/13 13:11:26;;;;;;;2.30;2.20;;;17.80;99.90;;;;;;5081329;28;20474;-52
2021/06/13 13:13:59;;;;;;;2.93;2.67;;;17.80;99.90;;;;;;5081544;28;20455;-53
2021/06/13 13:16:33;;;;;;;2.80;2.10;;;17.80;99.90;;;;;;5082411;28;20509;-49
2021/06/13 13:19:07;;;;;;;2.37;2.17;;;17.80;99.90;;;;;;5081474;28;20482;-51
2021/06/13 13:21:40;;;;;;;1.63;1.53;;;17.90;99.90;;;;;;5082241;28;20479;-54
2021/06/13 13:24:30;;;;;;;1.73;1.33;;;18.00;99.90;;;;;;5080629;28;20526;-51